Holesov, Czech Republic
Current Conditions -  °F | °C
As of 4:30 AM on Monday 22 Dec 2014 (Local Time) from LKMT Reporting Station
Overcast Overcast  
Wind Chill:   Ceiling: 3300
Heat Index:   Visibility: 6mi
Dew Point:   Wind: 23mph
Humidity: 70%   Direction: 220°SW
Pressure: 30.09"   Gusts: NA
Location:  49.34°N, 17.58°E
Report Text: LKMT 220230Z 22020KT 9999 OVC033 05/M00 Q1019 NOSIG
Loading
Personal Weather Stations






























Interactive Weather Map New forecast layout! Learn more

10-Day Weather Forecast

Advertisements
Track Severe Weather on mobile